Time;durP1;ratioP1;P1;durP2;ratioP2;P2;SDS_P1;SDS_P2;PMS_P1;PMS_P2;Temp;Humidity;BMP_temperature;BMP_pressure;BME280_temperature;BME280_humidity;BME280_pressure;Samples;Min_cycle;Max_cycle;Signal;HPM_P1;HPM_P2
2021/12/06 00:02:22;;;;;;;21.63;10.50;;;;;;;;;;5054951;28;20017;-86
2021/12/06 00:04:48;;;;;;;22.93;11.03;;;;;;;;;;5089619;28;20063;-87
2021/12/06 00:07:17;;;;;;;20.20;10.67;;;;;;;;;;5068911;28;20045;-86
2021/12/06 00:09:43;;;;;;;17.57;9.47;;;;;;;;;;5055464;28;20025;-86
2021/12/06 00:12:09;;;;;;;20.97;10.50;;;;;;;;;;5054763;28;20013;-86
2021/12/06 00:14:37;;;;;;;26.70;12.07;;;;;;;;;;5087428;28;20040;-86
2021/12/06 00:17:04;;;;;;;25.20;11.60;;;;;;;;;;5046509;28;20032;-86
2021/12/06 00:19:29;;;;;;;24.67;11.27;;;;;;;;;;5061421;28;20023;-86
2021/12/06 00:21:55;;;;;;;22.93;11.57;;;;;;;;;;5063175;28;20032;-86
2021/12/06 00:24:20;;;;;;;26.57;10.83;;;;;;;;;;5087658;28;20025;-86
2021/12/06 00:26:46;;;;;;;24.70;12.33;;;;;;;;;;5087898;28;20064;-86
2021/12/06 00:29:11;;;;;;;31.23;11.43;;;;;;;;;;5061519;28;20365;-87
2021/12/06 00:31:37;;;;;;;21.80;9.70;;;;;;;;;;5054102;28;20021;-86
2021/12/06 00:34:06;;;;;;;18.37;9.43;;;;;;;;;;5087030;28;20013;-87
2021/12/06 00:36:33;;;;;;;21.23;8.93;;;;;;;;;;5061848;28;20025;-86
2021/12/06 00:39:00;;;;;;;17.43;9.93;;;;;;;;;;5053902;28;20047;-86
2021/12/06 00:41:25;;;;;;;21.77;10.33;;;;;;;;;;5087344;28;20032;-87
2021/12/06 00:43:51;;;;;;;20.10;9.83;;;;;;;;;;5061725;28;20476;-87
2021/12/06 00:46:16;;;;;;;17.50;8.93;;;;;;;;;;5061796;28;20035;-87
2021/12/06 00:48:41;;;;;;;16.70;8.67;;;;;;;;;;5053694;28;20025;-86
2021/12/06 00:51:07;;;;;;;17.07;8.37;;;;;;;;;;5055897;28;20027;-86
2021/12/06 00:53:32;;;;;;;14.90;8.20;;;;;;;;;;5065060;28;20024;-86
2021/12/06 00:55:57;;;;;;;18.17;9.07;;;;;;;;;;5062865;28;20025;-87
2021/12/06 00:58:23;;;;;;;19.13;9.60;;;;;;;;;;5053238;28;20032;-86
2021/12/06 01:00:51;;;;;;;16.77;8.73;;;;;;;;;;5053515;28;20035;-87
2021/12/06 01:03:18;;;;;;;22.93;10.43;;;;;;;;;;5047162;28;20029;-86
2021/12/06 01:05:44;;;;;;;17.63;9.67;;;;;;;;;;5060880;28;20031;-86
2021/12/06 01:08:09;;;;;;;19.63;9.40;;;;;;;;;;5053926;28;20840;-87
2021/12/06 01:10:34;;;;;;;22.20;9.83;;;;;;;;;;5053679;28;20047;-86
2021/12/06 01:13:00;;;;;;;19.47;9.47;;;;;;;;;;5053110;28;20074;-87
2021/12/06 01:15:26;;;;;;;19.47;9.20;;;;;;;;;;5053245;28;20020;-86
2021/12/06 01:17:51;;;;;;;19.77;9.57;;;;;;;;;;5053596;28;20025;-86
2021/12/06 01:20:21;;;;;;;18.23;8.43;;;;;;;;;;5052898;28;20392;-86
2021/12/06 01:22:55;;;;;;;16.27;8.43;;;;;;;;;;5086259;28;20146;-87
2021/12/06 01:41:21;;;;;;;18.73;8.67;;;;;;;;;;5062498;28;20035;-86
2021/12/06 01:44:05;;;;;;;15.30;8.13;;;;;;;;;;5052895;28;20021;-86
2021/12/06 01:46:31;;;;;;;16.20;8.53;;;;;;;;;;5078000;28;20017;-86
2021/12/06 01:48:56;;;;;;;19.77;9.27;;;;;;;;;;5053119;28;20027;-86
2021/12/06 01:51:21;;;;;;;21.23;9.87;;;;;;;;;;5052431;28;20021;-86
2021/12/06 01:53:46;;;;;;;23.50;10.47;;;;;;;;;;5085889;28;20032;-86
2021/12/06 01:56:11;;;;;;;22.93;10.60;;;;;;;;;;5053962;28;20040;-86
2021/12/06 01:58:37;;;;;;;24.87;10.40;;;;;;;;;;5085017;28;20032;-86
2021/12/06 02:01:02;;;;;;;25.53;10.23;;;;;;;;;;5061722;28;20358;-86
2021/12/06 02:03:27;;;;;;;23.60;10.33;;;;;;;;;;5085341;28;20047;-86
2021/12/06 02:05:52;;;;;;;28.90;11.13;;;;;;;;;;5058341;28;20115;-86
2021/12/06 02:08:18;;;;;;;20.83;9.47;;;;;;;;;;5054120;28;20392;-87
2021/12/06 02:10:43;;;;;;;19.77;8.93;;;;;;;;;;5059123;28;20379;-86
2021/12/06 02:13:10;;;;;;;23.70;9.73;;;;;;;;;;5052181;28;20024;-86
2021/12/06 02:15:42;;;;;;;33.80;12.77;;;;;;;;;;5052182;28;20112;-86
2021/12/06 02:18:14;;;;;;;36.03;14.10;;;;;;;;;;5052270;28;20020;-86
2021/12/06 02:20:47;;;;;;;39.42;15.48;;;;;;;;;;5052321;28;20036;-86
2021/12/06 02:23:12;;;;;;;20.13;9.73;;;;;;;;;;5085036;28;20040;-86
2021/12/06 02:25:38;;;;;;;20.97;10.07;;;;;;;;;;5079512;28;20396;-87
2021/12/06 02:28:03;;;;;;;28.97;12.50;;;;;;;;;;5057126;28;20020;-86
2021/12/06 02:30:29;;;;;;;29.97;11.70;;;;;;;;;;5059493;28;20023;-86
2021/12/06 02:32:54;;;;;;;20.53;10.00;;;;;;;;;;5056610;28;20025;-86
2021/12/06 02:35:22;;;;;;;21.83;10.97;;;;;;;;;;5054664;28;20074;-86
2021/12/06 02:37:48;;;;;;;23.10;10.23;;;;;;;;;;5079742;28;20021;-86
2021/12/06 02:40:23;;;;;;;20.47;10.27;;;;;;;;;;5051941;28;20158;-86
2021/12/06 02:42:49;;;;;;;19.23;9.90;;;;;;;;;;5047726;28;20470;-86
2021/12/06 02:45:16;;;;;;;22.80;11.00;;;;;;;;;;5055683;28;20032;-86
2021/12/06 02:47:41;;;;;;;21.53;10.37;;;;;;;;;;5051463;28;20036;-86
2021/12/06 02:50:08;;;;;;;25.13;11.27;;;;;;;;;;5084843;28;20020;-86
2021/12/06 02:52:34;;;;;;;24.67;10.80;;;;;;;;;;5084882;28;20021;-87
2021/12/06 02:55:01;;;;;;;25.00;12.20;;;;;;;;;;5056362;28;20556;-86
2021/12/06 02:57:36;;;;;;;26.27;11.50;;;;;;;;;;5053680;28;20025;-86
2021/12/06 03:00:05;;;;;;;23.93;11.40;;;;;;;;;;5089766;28;20153;-86
2021/12/06 03:02:30;;;;;;;24.47;11.00;;;;;;;;;;5061433;28;20020;-86
2021/12/06 03:04:56;;;;;;;27.40;11.67;;;;;;;;;;5084221;28;20487;-87
2021/12/06 03:07:24;;;;;;;25.00;11.10;;;;;;;;;;5051342;28;20016;-85
2021/12/06 03:09:52;;;;;;;24.37;10.70;;;;;;;;;;5084264;28;20048;-86
2021/12/06 03:12:19;;;;;;;30.10;13.87;;;;;;;;;;5051405;28;20052;-86
2021/12/06 03:14:47;;;;;;;22.33;11.03;;;;;;;;;;5051150;28;20025;-87
2021/12/06 03:17:13;;;;;;;23.87;10.83;;;;;;;;;;5051178;28;20052;-86
2021/12/06 03:19:39;;;;;;;22.67;10.77;;;;;;;;;;5059044;28;20021;-87
2021/12/06 03:22:05;;;;;;;24.47;10.90;;;;;;;;;;5084669;28;20047;-86
2021/12/06 03:24:30;;;;;;;24.13;11.33;;;;;;;;;;5084240;28;20013;-86
2021/12/06 03:26:56;;;;;;;27.27;12.63;;;;;;;;;;5050884;28;20032;-86
2021/12/06 03:29:22;;;;;;;31.77;14.00;;;;;;;;;;5059010;28;20376;-86
2021/12/06 03:31:47;;;;;;;32.93;14.00;;;;;;;;;;5060057;28;20029;-86
2021/12/06 03:34:13;;;;;;;31.93;14.43;;;;;;;;;;5084229;28;20025;-86
2021/12/06 03:36:39;;;;;;;34.33;14.57;;;;;;;;;;5050558;28;20068;-86
2021/12/06 03:39:06;;;;;;;37.37;15.90;;;;;;;;;;5084415;28;20116;-86
2021/12/06 03:41:31;;;;;;;29.83;14.43;;;;;;;;;;5076778;28;20543;-86
2021/12/06 03:43:57;;;;;;;33.57;14.17;;;;;;;;;;5067103;28;20064;-86
2021/12/06 03:46:23;;;;;;;29.30;12.53;;;;;;;;;;5050984;28;20028;-86
2021/12/06 03:48:48;;;;;;;26.20;12.70;;;;;;;;;;5052044;28;20063;-86
2021/12/06 03:51:13;;;;;;;33.03;14.80;;;;;;;;;;5084023;28;20021;-86
2021/12/06 03:53:39;;;;;;;32.27;14.00;;;;;;;;;;5051526;28;20025;-86
2021/12/06 03:56:04;;;;;;;34.33;14.70;;;;;;;;;;5050561;28;20063;-86
2021/12/06 03:58:30;;;;;;;33.60;14.63;;;;;;;;;;5084015;28;20136;-86
2021/12/06 04:00:55;;;;;;;33.87;15.97;;;;;;;;;;5085279;28;20025;-86
2021/12/06 04:03:22;;;;;;;42.47;16.63;;;;;;;;;;5057045;28;20376;-86
2021/12/06 04:05:48;;;;;;;40.13;16.47;;;;;;;;;;5059639;28;20035;-86
2021/12/06 04:08:13;;;;;;;51.50;18.13;;;;;;;;;;5084082;28;20538;-86
2021/12/06 04:10:38;;;;;;;40.17;17.97;;;;;;;;;;5083787;28;20380;-86
2021/12/06 04:13:03;;;;;;;47.07;18.13;;;;;;;;;;5050853;28;20028;-86
2021/12/06 04:15:29;;;;;;;41.37;17.17;;;;;;;;;;5050639;28;20029;-86
2021/12/06 04:17:56;;;;;;;43.67;17.93;;;;;;;;;;5051703;28;20020;-86
2021/12/06 04:20:21;;;;;;;40.63;17.40;;;;;;;;;;5050580;28;20028;-86
2021/12/06 04:22:46;;;;;;;45.23;17.23;;;;;;;;;;5050586;28;20029;-87
2021/12/06 04:25:14;;;;;;;40.40;16.67;;;;;;;;;;5051416;28;20021;-86
2021/12/06 04:27:39;;;;;;;43.00;16.23;;;;;;;;;;5083813;28;20530;-86
2021/12/06 04:30:06;;;;;;;42.70;17.60;;;;;;;;;;5051504;28;20021;-86
2021/12/06 04:32:31;;;;;;;46.43;19.00;;;;;;;;;;5056333;28;20436;-86
2021/12/06 04:34:57;;;;;;;45.03;18.33;;;;;;;;;;5056864;28;20028;-86
2021/12/06 04:37:22;;;;;;;43.27;18.17;;;;;;;;;;5061441;28;20024;-86
2021/12/06 04:39:47;;;;;;;45.50;18.73;;;;;;;;;;5061435;28;20036;-86
2021/12/06 04:42:12;;;;;;;52.93;19.27;;;;;;;;;;5062387;28;20029;-86
2021/12/06 04:44:38;;;;;;;48.37;19.10;;;;;;;;;;5086979;28;20021;-86
2021/12/06 04:47:03;;;;;;;52.53;21.03;;;;;;;;;;5053783;28;20110;-86
2021/12/06 04:49:29;;;;;;;44.03;18.33;;;;;;;;;;5053892;28;20036;-86
2021/12/06 04:51:56;;;;;;;44.30;18.67;;;;;;;;;;5087058;28;20120;-86
2021/12/06 04:54:24;;;;;;;45.97;17.43;;;;;;;;;;5062284;28;20021;-86
2021/12/06 04:56:51;;;;;;;46.80;19.23;;;;;;;;;;5053511;28;20456;-87
2021/12/06 04:59:25;;;;;;;49.43;18.83;;;;;;;;;;5088510;28;20041;-87
2021/12/06 05:01:51;;;;;;;42.87;17.73;;;;;;;;;;5066546;28;20040;-86
2021/12/06 05:04:19;;;;;;;44.50;18.30;;;;;;;;;;5094940;28;20408;-86
2021/12/06 05:06:46;;;;;;;50.63;19.63;;;;;;;;;;5061791;28;20037;-86
2021/12/06 05:09:22;;;;;;;47.67;20.17;;;;;;;;;;5086666;28;20492;-86
2021/12/06 05:11:48;;;;;;;49.43;19.47;;;;;;;;;;5059687;28;20452;-86
2021/12/06 05:14:13;;;;;;;43.63;18.37;;;;;;;;;;5054933;28;20056;-87
2021/12/06 05:16:39;;;;;;;46.53;18.60;;;;;;;;;;5086362;28;20029;-86
2021/12/06 05:19:04;;;;;;;49.73;18.50;;;;;;;;;;5061367;28;20488;-87
2021/12/06 05:21:30;;;;;;;47.30;19.40;;;;;;;;;;5052556;28;20029;-87
2021/12/06 05:23:55;;;;;;;51.13;18.70;;;;;;;;;;5060725;28;20039;-86
2021/12/06 05:26:20;;;;;;;43.07;17.43;;;;;;;;;;5086186;28;20056;-86
2021/12/06 05:28:48;;;;;;;47.27;19.47;;;;;;;;;;5054327;28;20036;-87
2021/12/06 05:31:20;;;;;;;52.20;21.37;;;;;;;;;;5053026;28;20460;-86
2021/12/06 05:33:47;;;;;;;45.10;16.50;;;;;;;;;;5062163;28;20470;-86
2021/12/06 05:36:13;;;;;;;49.70;19.30;;;;;;;;;;5086120;28;20480;-87
2021/12/06 05:38:38;;;;;;;50.57;18.37;;;;;;;;;;5060644;28;20074;-87
2021/12/06 05:41:04;;;;;;;45.33;16.80;;;;;;;;;;5053142;28;20021;-86
2021/12/06 05:43:29;;;;;;;46.13;18.93;;;;;;;;;;5052592;28;20117;-87
2021/12/06 05:45:55;;;;;;;45.17;18.60;;;;;;;;;;5085931;28;20111;-86
2021/12/06 05:48:20;;;;;;;45.10;17.73;;;;;;;;;;5085689;28;20028;-87
2021/12/06 05:50:46;;;;;;;45.73;16.80;;;;;;;;;;5052750;28;20267;-86
2021/12/06 05:53:12;;;;;;;47.97;18.97;;;;;;;;;;5052583;28;20017;-87
2021/12/06 05:55:37;;;;;;;43.80;17.97;;;;;;;;;;5085967;28;20116;-86
2021/12/06 05:58:04;;;;;;;48.07;18.20;;;;;;;;;;5085674;28;20021;-86
2021/12/06 06:00:31;;;;;;;50.53;20.33;;;;;;;;;;5060016;28;20041;-86
2021/12/06 06:02:57;;;;;;;46.93;18.57;;;;;;;;;;5052888;28;20025;-86
2021/12/06 06:05:24;;;;;;;44.97;17.10;;;;;;;;;;5085903;28;20491;-86
2021/12/06 06:07:49;;;;;;;45.23;17.53;;;;;;;;;;5059924;28;20021;-86
2021/12/06 06:10:15;;;;;;;37.83;16.23;;;;;;;;;;5059879;28;20023;-87
2021/12/06 06:12:40;;;;;;;46.20;16.77;;;;;;;;;;5060154;28;20048;-86
2021/12/06 06:15:06;;;;;;;41.27;18.43;;;;;;;;;;5085519;28;20012;-86
2021/12/06 06:17:39;;;;;;;44.03;16.93;;;;;;;;;;5084943;28;20100;-86
2021/12/06 06:20:06;;;;;;;43.50;16.63;;;;;;;;;;5051721;28;20021;-86
2021/12/06 06:22:31;;;;;;;35.03;15.00;;;;;;;;;;5094436;28;20028;-86
2021/12/06 06:24:56;;;;;;;40.93;16.63;;;;;;;;;;5058710;28;20416;-86
2021/12/06 06:27:21;;;;;;;37.60;16.03;;;;;;;;;;5059738;28;20016;-86
2021/12/06 06:29:46;;;;;;;42.90;15.83;;;;;;;;;;5051863;28;20051;-86
2021/12/06 06:32:12;;;;;;;38.00;16.57;;;;;;;;;;5051986;28;20471;-86
2021/12/06 06:34:37;;;;;;;35.83;14.47;;;;;;;;;;5059674;28;20487;-86
2021/12/06 06:37:02;;;;;;;41.50;16.70;;;;;;;;;;5090319;28;20086;-86
2021/12/06 06:39:28;;;;;;;29.83;12.97;;;;;;;;;;5063836;28;20495;-86
2021/12/06 06:41:53;;;;;;;28.93;12.53;;;;;;;;;;5051732;28;20028;-86
2021/12/06 06:44:20;;;;;;;30.27;13.03;;;;;;;;;;5084804;28;20017;-86
2021/12/06 06:46:46;;;;;;;26.57;12.43;;;;;;;;;;5061626;28;20111;-85
2021/12/06 06:49:11;;;;;;;29.73;13.53;;;;;;;;;;5062652;28;20108;-85
2021/12/06 06:51:37;;;;;;;31.90;14.80;;;;;;;;;;5083868;28;20104;-85
2021/12/06 06:54:02;;;;;;;32.00;13.73;;;;;;;;;;5051870;28;20016;-86
2021/12/06 06:56:28;;;;;;;35.23;14.30;;;;;;;;;;5050970;28;20042;-85
2021/12/06 06:58:53;;;;;;;26.37;12.53;;;;;;;;;;5051313;28;20488;-85
2021/12/06 07:01:19;;;;;;;26.80;12.83;;;;;;;;;;5051500;28;20107;-86
2021/12/06 07:03:44;;;;;;;32.97;13.83;;;;;;;;;;5084662;28;20025;-85
2021/12/06 07:06:10;;;;;;;31.33;14.57;;;;;;;;;;5084897;28;20119;-85
2021/12/06 07:08:35;;;;;;;32.37;13.57;;;;;;;;;;5052543;28;20054;-85
2021/12/06 07:11:01;;;;;;;29.57;12.70;;;;;;;;;;5052439;28;20017;-85
2021/12/06 07:13:27;;;;;;;31.63;13.93;;;;;;;;;;5054390;28;20021;-85
2021/12/06 07:15:53;;;;;;;25.27;11.77;;;;;;;;;;5049891;28;20021;-85
2021/12/06 07:18:18;;;;;;;22.20;10.70;;;;;;;;;;5056912;28;20043;-85
2021/12/06 07:20:44;;;;;;;22.87;10.33;;;;;;;;;;5062049;28;20051;-86
2021/12/06 07:23:09;;;;;;;23.10;10.37;;;;;;;;;;5051042;28;20017;-86
2021/12/06 07:25:34;;;;;;;25.50;11.40;;;;;;;;;;5051074;28;20056;-86
2021/12/06 07:28:00;;;;;;;22.27;11.10;;;;;;;;;;5077545;28;20052;-86
2021/12/06 07:30:26;;;;;;;22.93;10.63;;;;;;;;;;5051220;28;20021;-87
2021/12/06 07:32:52;;;;;;;20.20;10.47;;;;;;;;;;5050533;28;20428;-86
2021/12/06 07:35:18;;;;;;;23.70;10.87;;;;;;;;;;5084495;28;20021;-86
2021/12/06 07:37:43;;;;;;;23.50;11.53;;;;;;;;;;5059177;28;20031;-86
2021/12/06 07:40:09;;;;;;;21.77;10.70;;;;;;;;;;5054493;28;20025;-87
2021/12/06 07:42:35;;;;;;;23.63;11.03;;;;;;;;;;5050756;28;20388;-86
2021/12/06 07:45:00;;;;;;;24.23;11.27;;;;;;;;;;5058610;28;20021;-86
2021/12/06 07:47:25;;;;;;;24.57;11.43;;;;;;;;;;5050685;28;20107;-86
2021/12/06 07:49:51;;;;;;;24.17;10.03;;;;;;;;;;5057520;28;20017;-86
2021/12/06 07:52:16;;;;;;;25.53;11.03;;;;;;;;;;5051795;28;20028;-86
2021/12/06 07:54:42;;;;;;;24.87;11.63;;;;;;;;;;5083618;28;20020;-86
2021/12/06 07:57:08;;;;;;;25.37;11.77;;;;;;;;;;5083689;28;20493;-86
2021/12/06 07:59:34;;;;;;;24.67;11.60;;;;;;;;;;5052056;28;20484;-85
2021/12/06 08:01:59;;;;;;;30.17;13.20;;;;;;;;;;5053461;28;20542;-85
2021/12/06 08:04:24;;;;;;;20.93;9.80;;;;;;;;;;5053819;28;20028;-86
2021/12/06 08:06:50;;;;;;;26.70;11.80;;;;;;;;;;5054549;28;20017;-86
2021/12/06 08:09:15;;;;;;;25.67;12.57;;;;;;;;;;5087021;28;20074;-84
2021/12/06 08:11:43;;;;;;;26.53;12.57;;;;;;;;;;5053760;28;20494;-85
2021/12/06 08:14:09;;;;;;;28.83;12.80;;;;;;;;;;5062510;28;20020;-84
2021/12/06 08:16:39;;;;;;;29.93;12.43;;;;;;;;;;5054206;28;20045;-84
2021/12/06 08:19:05;;;;;;;26.90;12.63;;;;;;;;;;5088080;28;20032;-90
2021/12/06 08:21:30;;;;;;;26.60;11.80;;;;;;;;;;5082471;28;20020;-89
2021/12/06 08:23:56;;;;;;;28.30;12.80;;;;;;;;;;5054537;28;20021;-89
2021/12/06 08:26:23;;;;;;;27.90;12.37;;;;;;;;;;5061256;28;20769;-88
2021/12/06 08:28:48;;;;;;;27.67;12.17;;;;;;;;;;5063098;28;20046;-88
2021/12/06 08:31:14;;;;;;;21.50;10.23;;;;;;;;;;5053924;28;20422;-88
2021/12/06 08:33:39;;;;;;;24.87;11.80;;;;;;;;;;5051064;28;20033;-88
2021/12/06 08:36:06;;;;;;;28.10;11.93;;;;;;;;;;5054054;28;20029;-88
2021/12/06 08:38:32;;;;;;;26.53;12.07;;;;;;;;;;5057635;28;20484;-89
2021/12/06 08:40:58;;;;;;;25.90;12.00;;;;;;;;;;5058826;28;20029;-88
2021/12/06 08:43:23;;;;;;;27.60;12.50;;;;;;;;;;5059428;28;20078;-89
2021/12/06 08:45:59;;;;;;;25.33;11.47;;;;;;;;;;5063196;28;20486;-89
2021/12/06 08:48:27;;;;;;;27.97;11.90;;;;;;;;;;5087234;28;20103;-89
2021/12/06 08:50:53;;;;;;;26.20;10.50;;;;;;;;;;5045856;28;20094;-89
2021/12/06 08:53:19;;;;;;;25.57;11.50;;;;;;;;;;5087266;28;20099;-88
2021/12/06 08:55:44;;;;;;;27.30;11.87;;;;;;;;;;5089190;28;20101;-88
2021/12/06 08:58:09;;;;;;;25.07;11.27;;;;;;;;;;5059729;28;20027;-88
2021/12/06 09:00:35;;;;;;;22.83;9.70;;;;;;;;;;5053188;28;20469;-89
2021/12/06 09:03:01;;;;;;;24.20;11.30;;;;;;;;;;5061717;28;20517;-89
2021/12/06 09:05:28;;;;;;;26.63;10.97;;;;;;;;;;5086946;28;20083;-89
2021/12/06 09:07:54;;;;;;;17.70;7.77;;;;;;;;;;5057009;28;20073;-88
2021/12/06 09:10:19;;;;;;;17.87;8.13;;;;;;;;;;5060115;28;20407;-88
2021/12/06 09:12:44;;;;;;;24.30;11.13;;;;;;;;;;5085591;28;20384;-88
2021/12/06 09:15:12;;;;;;;28.03;13.43;;;;;;;;;;5086685;28;20021;-88
2021/12/06 09:17:37;;;;;;;26.73;12.07;;;;;;;;;;5061322;28;20029;-89
2021/12/06 09:20:04;;;;;;;28.40;12.43;;;;;;;;;;5057285;28;20039;-88
2021/12/06 09:22:29;;;;;;;30.27;12.43;;;;;;;;;;5057325;28;20487;-89
2021/12/06 09:24:54;;;;;;;32.17;13.67;;;;;;;;;;5054409;28;20021;-89
2021/12/06 09:27:20;;;;;;;31.27;12.83;;;;;;;;;;5080756;28;20083;-88
2021/12/06 09:29:45;;;;;;;36.13;13.43;;;;;;;;;;5050508;28;20021;-88
2021/12/06 09:32:12;;;;;;;32.67;11.80;;;;;;;;;;5083078;28;20159;-89
2021/12/06 09:34:42;;;;;;;32.93;13.07;;;;;;;;;;5086353;28;20400;-89
2021/12/06 09:37:08;;;;;;;16.80;6.77;;;;;;;;;;5053026;28;20032;-89
2021/12/06 09:39:34;;;;;;;24.57;10.57;;;;;;;;;;5053107;28;20025;-89
2021/12/06 09:42:00;;;;;;;28.77;13.47;;;;;;;;;;5052897;28;20473;-89
2021/12/06 09:44:25;;;;;;;31.47;13.67;;;;;;;;;;5086364;28;20028;-89
2021/12/06 09:46:51;;;;;;;35.40;12.80;;;;;;;;;;5052596;28;20029;-89
2021/12/06 09:49:17;;;;;;;32.83;12.10;;;;;;;;;;5052710;28;20017;-89
2021/12/06 09:51:50;;;;;;;28.87;11.63;;;;;;;;;;5085951;28;20025;-88
2021/12/06 09:54:16;;;;;;;30.63;12.30;;;;;;;;;;5046356;28;20040;-89
2021/12/06 09:56:42;;;;;;;28.73;11.27;;;;;;;;;;5086014;28;20435;-89
2021/12/06 09:59:10;;;;;;;22.10;10.23;;;;;;;;;;5062746;28;20025;-88
2021/12/06 10:01:41;;;;;;;22.57;10.03;;;;;;;;;;5061117;28;20028;-88
2021/12/06 10:04:09;;;;;;;25.25;11.25;;;;;;;;;;5053731;28;20036;-88
2021/12/06 10:06:34;;;;;;;20.23;9.70;;;;;;;;;;5084860;28;20067;-89
2021/12/06 10:09:00;;;;;;;26.57;12.20;;;;;;;;;;5069364;28;20392;-89
2021/12/06 10:11:26;;;;;;;27.23;11.90;;;;;;;;;;5055215;28;20576;-89
2021/12/06 10:13:51;;;;;;;27.13;12.17;;;;;;;;;;5049485;28;20067;-89
2021/12/06 10:16:18;;;;;;;28.37;12.63;;;;;;;;;;5051720;28;20116;-90
2021/12/06 10:18:44;;;;;;;20.33;8.87;;;;;;;;;;5052140;28;20017;-89
2021/12/06 10:21:09;;;;;;;22.53;10.03;;;;;;;;;;5055363;28;20027;-89
2021/12/06 10:23:37;;;;;;;19.47;7.30;;;;;;;;;;5057063;28;20054;-89
2021/12/06 10:26:03;;;;;;;31.40;14.00;;;;;;;;;;5053966;28;20025;-89
2021/12/06 10:28:30;;;;;;;29.47;12.20;;;;;;;;;;5051931;28;20017;-88
2021/12/06 10:30:57;;;;;;;33.13;14.33;;;;;;;;;;5084397;28;20075;-89
2021/12/06 10:33:24;;;;;;;36.47;15.37;;;;;;;;;;5052139;28;20089;-89
2021/12/06 10:35:51;;;;;;;33.70;14.63;;;;;;;;;;5059188;28;20115;-88
2021/12/06 10:38:21;;;;;;;37.77;15.97;;;;;;;;;;5090250;28;20032;-89
2021/12/06 10:40:46;;;;;;;43.23;15.63;;;;;;;;;;5052879;28;20086;-88
2021/12/06 10:43:12;;;;;;;33.70;14.30;;;;;;;;;;5055402;28;20021;-89
2021/12/06 10:45:42;;;;;;;22.77;10.33;;;;;;;;;;5055966;28;20024;-89
2021/12/06 10:48:07;;;;;;;33.00;14.57;;;;;;;;;;5059854;28;20071;-89
2021/12/06 10:50:33;;;;;;;38.97;16.00;;;;;;;;;;5070560;28;20056;-89
2021/12/06 10:52:59;;;;;;;37.20;15.10;;;;;;;;;;5050169;28;20477;-89
2021/12/06 10:55:27;;;;;;;38.23;15.37;;;;;;;;;;5077377;28;20025;-89
2021/12/06 10:57:54;;;;;;;37.97;16.23;;;;;;;;;;5051843;28;20029;-89
2021/12/06 11:00:29;;;;;;;43.37;17.93;;;;;;;;;;5052186;28;20025;-89
2021/12/06 11:02:55;;;;;;;44.43;17.63;;;;;;;;;;5076890;28;20385;-88
2021/12/06 11:05:21;;;;;;;43.03;17.07;;;;;;;;;;5057880;28;20021;-89
2021/12/06 11:07:46;;;;;;;36.13;15.43;;;;;;;;;;5045988;28;20464;-89
2021/12/06 11:10:12;;;;;;;29.77;12.33;;;;;;;;;;5051595;28;20104;-89
2021/12/06 11:12:37;;;;;;;44.13;17.20;;;;;;;;;;5051378;28;20024;-89
2021/12/06 11:15:11;;;;;;;35.07;14.33;;;;;;;;;;5052462;28;20464;-89
2021/12/06 11:17:37;;;;;;;43.03;15.90;;;;;;;;;;5051758;28;20048;-89
2021/12/06 11:20:03;;;;;;;44.50;17.03;;;;;;;;;;5076850;28;20025;-89
2021/12/06 11:22:29;;;;;;;41.13;16.13;;;;;;;;;;5051747;28;20485;-89
2021/12/06 11:24:55;;;;;;;43.60;17.53;;;;;;;;;;5076391;28;20029;-88
2021/12/06 11:27:26;;;;;;;36.50;15.60;;;;;;;;;;5042981;28;20079;-89
2021/12/06 11:29:54;;;;;;;49.87;19.60;;;;;;;;;;5053546;28;20025;-89
2021/12/06 11:32:22;;;;;;;41.17;17.80;;;;;;;;;;5076755;28;20023;-89
2021/12/06 11:34:49;;;;;;;44.80;19.40;;;;;;;;;;5043962;28;20021;-89
2021/12/06 11:37:20;;;;;;;44.37;19.23;;;;;;;;;;5042615;28;20039;-88
2021/12/06 11:39:47;;;;;;;44.53;15.60;;;;;;;;;;5052211;28;20389;-89
2021/12/06 11:42:12;;;;;;;41.10;17.33;;;;;;;;;;5059324;28;20104;-89
2021/12/06 11:44:42;;;;;;;46.17;17.77;;;;;;;;;;5089088;28;20545;-89
2021/12/06 11:47:08;;;;;;;36.90;14.43;;;;;;;;;;5049239;28;20056;-89
2021/12/06 11:49:35;;;;;;;38.10;15.47;;;;;;;;;;5062895;28;20048;-89
2021/12/06 11:52:00;;;;;;;33.27;14.37;;;;;;;;;;5080831;28;20032;-89
2021/12/06 11:54:26;;;;;;;38.17;16.30;;;;;;;;;;5055493;28;20384;-89
2021/12/06 11:56:52;;;;;;;37.83;14.43;;;;;;;;;;5088987;28;20021;-89
2021/12/06 11:59:18;;;;;;;34.77;14.20;;;;;;;;;;5055046;28;20103;-89
2021/12/06 12:02:01;;;;;;;32.47;14.17;;;;;;;;;;5063714;28;20017;-89
2021/12/06 12:04:29;;;;;;;35.20;14.47;;;;;;;;;;5056005;28;20507;-89
2021/12/06 12:07:00;;;;;;;32.55;14.88;;;;;;;;;;5062764;28;20025;-89
2021/12/06 12:09:31;;;;;;;24.25;10.20;;;;;;;;;;5059417;28;20017;-89
2021/12/06 12:12:06;;;;;;;32.05;13.25;;;;;;;;;;5054543;28;20016;-89
2021/12/06 12:14:32;;;;;;;25.95;10.88;;;;;;;;;;5054352;28;20055;-89
2021/12/06 12:16:59;;;;;;;24.15;9.75;;;;;;;;;;5054735;28;20420;-89
2021/12/06 12:19:25;;;;;;;26.27;12.55;;;;;;;;;;5087919;28;20116;-88
2021/12/06 12:21:50;;;;;;;28.80;13.10;;;;;;;;;;5088011;28;20122;-88
2021/12/06 12:24:15;;;;;;;35.50;13.70;;;;;;;;;;5062787;28;20021;-88
2021/12/06 12:26:51;;;;;;;23.77;9.93;;;;;;;;;;5056206;28;20028;-89
2021/12/06 12:29:23;;;;;;;26.43;11.00;;;;;;;;;;5090937;28;20074;-89
2021/12/06 12:31:51;;;;;;;29.85;13.18;;;;;;;;;;5062309;28;20116;-89
2021/12/06 12:34:17;;;;;;;26.87;10.77;;;;;;;;;;5079733;28;20017;-89
2021/12/06 12:36:43;;;;;;;26.23;11.23;;;;;;;;;;5058799;28;20021;-89
2021/12/06 12:39:14;;;;;;;23.27;9.87;;;;;;;;;;5059091;28;20078;-89
2021/12/06 12:41:46;;;;;;;18.73;7.93;;;;;;;;;;5060640;28;20029;-89
2021/12/06 12:44:12;;;;;;;19.50;10.00;;;;;;;;;;5062343;28;20380;-89
2021/12/06 12:46:38;;;;;;;20.20;9.70;;;;;;;;;;5046104;28;20108;-88
2021/12/06 12:49:05;;;;;;;22.70;10.40;;;;;;;;;;5053742;28;20025;-88
2021/12/06 12:51:35;;;;;;;21.27;9.50;;;;;;;;;;5053614;28;20543;-88
2021/12/06 12:54:06;;;;;;;17.70;8.80;;;;;;;;;;5053402;28;20017;-88
2021/12/06 12:56:31;;;;;;;19.43;10.13;;;;;;;;;;5061662;28;20431;-88
2021/12/06 12:58:58;;;;;;;14.87;7.37;;;;;;;;;;5089272;28;20077;-88
2021/12/06 13:01:24;;;;;;;19.07;8.50;;;;;;;;;;5056810;28;20027;-88
2021/12/06 13:03:54;;;;;;;8.00;3.23;;;;;;;;;;5085752;28;20025;-88
2021/12/06 13:06:33;;;;;;;13.90;6.63;;;;;;;;;;5055653;28;20032;-88
2021/12/06 13:09:05;;;;;;;14.20;6.67;;;;;;;;;;5034291;28;20025;-88
2021/12/06 13:11:45;;;;;;;12.37;6.10;;;;;;;;;;5050894;28;20514;-88
2021/12/06 13:14:42;;;;;;;15.03;6.93;;;;;;;;;;5064883;28;20028;-88
2021/12/06 13:17:12;;;;;;;11.07;4.80;;;;;;;;;;5052771;28;20040;-88
2021/12/06 13:22:13;;;;;;;15.57;6.30;;;;;;;;;;5061078;28;20036;-88
2021/12/06 13:24:57;;;;;;;12.03;5.60;;;;;;;;;;5085506;28;20041;-88
2021/12/06 13:27:28;;;;;;;11.80;5.50;;;;;;;;;;5065480;28;20021;-89
2021/12/06 13:29:59;;;;;;;9.97;4.47;;;;;;;;;;5086144;28;20140;-88
2021/12/06 13:32:32;;;;;;;13.73;5.83;;;;;;;;;;5061340;28;20423;-88
2021/12/06 13:35:30;;;;;;;10.40;4.70;;;;;;;;;;5085308;28;20488;-88
2021/12/06 13:38:15;;;;;;;10.90;5.37;;;;;;;;;;5060013;28;20039;-88
2021/12/06 13:40:45;;;;;;;12.73;5.73;;;;;;;;;;5052757;28;20013;-88
2021/12/06 13:43:12;;;;;;;10.43;5.07;;;;;;;;;;5086170;28;20017;-88
2021/12/06 13:45:40;;;;;;;10.50;5.10;;;;;;;;;;5078088;28;20025;-88
2021/12/06 13:48:19;;;;;;;8.53;3.70;;;;;;;;;;5052974;28;20381;-88
2021/12/06 13:50:46;;;;;;;9.83;4.20;;;;;;;;;;5053669;28;20419;-88
2021/12/06 13:53:25;;;;;;;6.53;3.05;;;;;;;;;;5061243;28;20021;-88
2021/12/06 13:55:51;;;;;;;7.45;3.38;;;;;;;;;;5061398;28;20535;-87
2021/12/06 13:58:18;;;;;;;8.55;3.83;;;;;;;;;;5059598;28;20069;-89
2021/12/06 14:00:46;;;;;;;9.07;3.97;;;;;;;;;;5060269;28;20021;-88
2021/12/06 14:03:13;;;;;;;7.95;4.05;;;;;;;;;;5044857;28;20021;-88
2021/12/06 14:05:43;;;;;;;8.63;3.97;;;;;;;;;;5051607;28;20477;-88
2021/12/06 14:08:14;;;;;;;4.97;2.37;;;;;;;;;;5076897;28;20104;-87
2021/12/06 14:10:39;;;;;;;5.57;2.57;;;;;;;;;;5053558;28;20028;-88
2021/12/06 14:13:07;;;;;;;7.93;3.60;;;;;;;;;;5052201;28;20033;-88
2021/12/06 14:15:42;;;;;;;6.87;3.23;;;;;;;;;;5052309;28;20017;-88
2021/12/06 14:18:08;;;;;;;5.90;3.47;;;;;;;;;;5060035;28;20520;-87
2021/12/06 14:20:33;;;;;;;6.03;2.63;;;;;;;;;;5060176;28;20033;-88
2021/12/06 14:23:02;;;;;;;6.63;2.90;;;;;;;;;;5066195;28;20047;-88
2021/12/06 14:25:27;;;;;;;6.07;3.03;;;;;;;;;;5079446;28;20031;-88
2021/12/06 14:27:52;;;;;;;6.73;2.60;;;;;;;;;;5050328;28;20021;-87
2021/12/06 14:30:20;;;;;;;6.33;3.07;;;;;;;;;;5082494;28;20027;-88
2021/12/06 14:32:49;;;;;;;6.30;3.17;;;;;;;;;;5059506;28;20027;-88
2021/12/06 14:35:14;;;;;;;5.60;2.40;;;;;;;;;;5061472;28;20029;-88
2021/12/06 14:37:39;;;;;;;7.80;3.50;;;;;;;;;;5052183;28;20021;-88
2021/12/06 14:40:06;;;;;;;5.33;2.57;;;;;;;;;;5053348;28;20024;-88